Time;durP1;ratioP1;P1;durP2;ratioP2;P2;SDS_P1;SDS_P2;PMS_P1;PMS_P2;Temp;Humidity;BMP_temperature;BMP_pressure;BME280_temperature;BME280_humidity;BME280_pressure;Samples;Min_cycle;Max_cycle;Signal;HPM_P1;HPM_P2
2023/09/19 00:02:16;;;;;;;6.63;1.00;;;18.10;99.90;;;;;;5009976;28;20469;-70
2023/09/19 00:04:44;;;;;;;6.50;1.03;;;17.90;99.90;;;;;;5010097;28;20454;-71
2023/09/19 00:07:13;;;;;;;6.53;0.90;;;17.80;99.90;;;;;;5009414;28;20563;-71
2023/09/19 00:09:44;;;;;;;8.10;1.00;;;17.80;99.90;;;;;;5009392;28;20478;-71
2023/09/19 00:12:13;;;;;;;6.50;1.00;;;17.70;99.90;;;;;;5009723;28;20650;-72
2023/09/19 00:14:41;;;;;;;6.70;1.30;;;17.60;99.90;;;;;;5009834;28;20442;-69
2023/09/19 00:17:09;;;;;;;6.57;1.10;;;17.60;99.90;;;;;;5007809;28;20458;-71
2023/09/19 00:19:38;;;;;;;7.00;1.20;;;17.60;99.90;;;;;;5009597;28;20477;-71
2023/09/19 00:22:07;;;;;;;6.40;1.00;;;17.50;99.90;;;;;;5008899;28;20525;-70
2023/09/19 00:24:35;;;;;;;5.97;1.00;;;17.60;99.90;;;;;;5008486;28;20481;-71
2023/09/19 00:27:03;;;;;;;6.93;1.03;;;17.60;99.90;;;;;;5008593;28;20632;-71
2023/09/19 00:29:32;;;;;;;6.60;1.10;;;17.60;99.90;;;;;;5009444;28;20577;-70
2023/09/19 00:32:03;;;;;;;7.50;1.17;;;17.60;99.90;;;;;;5009610;28;20454;-68
2023/09/19 00:34:34;;;;;;;6.63;1.10;;;17.60;99.90;;;;;;5009231;28;20529;-70
2023/09/19 00:37:04;;;;;;;5.90;0.90;;;17.70;99.90;;;;;;5009389;28;20446;-71
2023/09/19 00:39:32;;;;;;;6.50;0.80;;;17.70;99.90;;;;;;5009202;28;20535;-71
2023/09/19 00:42:04;;;;;;;6.23;0.73;;;17.70;99.90;;;;;;5009660;28;20525;-71
2023/09/19 00:44:34;;;;;;;6.37;1.00;;;17.70;99.90;;;;;;5009582;28;20969;-71
2023/09/19 00:47:03;;;;;;;6.93;1.07;;;17.80;99.90;;;;;;5009006;28;20481;-69
2023/09/19 00:49:32;;;;;;;5.90;0.80;;;17.80;99.90;;;;;;5009590;28;20493;-71
2023/09/19 00:52:00;;;;;;;6.37;1.10;;;17.80;99.90;;;;;;5009831;28;20445;-70
2023/09/19 00:54:30;;;;;;;7.83;1.17;;;17.80;99.90;;;;;;5009463;28;20450;-72
2023/09/19 00:56:58;;;;;;;6.30;1.10;;;17.70;99.90;;;;;;5008778;28;20441;-71
2023/09/19 00:59:26;;;;;;;7.47;1.20;;;17.70;99.90;;;;;;5009134;28;20469;-71
2023/09/19 01:01:56;;;;;;;5.90;0.90;;;17.70;99.90;;;;;;5009276;28;20453;-70
2023/09/19 01:04:24;;;;;;;6.10;0.90;;;17.80;99.90;;;;;;5009228;28;20540;-71
2023/09/19 01:06:53;;;;;;;6.40;1.20;;;17.90;99.90;;;;;;5008821;28;20486;-71
2023/09/19 01:09:21;;;;;;;7.30;0.97;;;17.80;99.90;;;;;;5008949;28;20465;-71
2023/09/19 01:11:54;;;;;;;7.40;1.17;;;17.70;99.90;;;;;;5009252;28;20480;-71
2023/09/19 01:14:31;;;;;;;6.80;0.87;;;17.80;99.90;;;;;;5009180;28;20528;-71
2023/09/19 01:17:05;;;;;;;6.20;0.80;;;17.70;99.90;;;;;;5009112;28;20444;-71
2023/09/19 01:20:04;;;;;;;6.57;1.00;;;17.80;99.90;;;;;;5009018;28;20469;-71
2023/09/19 01:22:45;;;;;;;6.07;0.80;;;17.80;99.90;;;;;;5007266;28;20972;-70
2023/09/19 01:25:52;;;;;;;6.40;1.00;;;17.70;99.90;;;;;;5009091;28;20520;-71
2023/09/19 01:28:36;;;;;;;6.10;0.90;;;17.60;99.90;;;;;;4995120;28;20469;-71
2023/09/19 01:31:11;;;;;;;6.50;1.20;;;17.60;99.90;;;;;;5012279;28;20467;-69
2023/09/19 01:34:04;;;;;;;6.57;1.00;;;17.60;99.90;;;;;;5004662;28;20865;-71
2023/09/19 01:36:35;;;;;;;6.20;0.90;;;17.70;99.90;;;;;;5012129;28;20443;-68
2023/09/19 01:39:09;;;;;;;6.30;1.17;;;17.70;99.90;;;;;;5012864;28;20461;-72
2023/09/19 01:41:57;;;;;;;6.17;1.00;;;17.70;99.90;;;;;;5012694;28;20939;-72
2023/09/19 01:44:32;;;;;;;6.40;1.10;;;17.60;99.90;;;;;;5012716;28;20475;-71
2023/09/19 01:47:11;;;;;;;6.60;1.00;;;17.60;99.90;;;;;;5012264;28;20479;-71
2023/09/19 01:49:49;;;;;;;7.13;1.10;;;17.60;99.90;;;;;;5012540;28;20961;-71
2023/09/19 01:52:21;;;;;;;6.30;0.87;;;17.60;99.90;;;;;;5012490;28;20442;-71
2023/09/19 01:54:53;;;;;;;6.00;0.83;;;17.50;99.90;;;;;;5012381;28;21025;-72
2023/09/19 01:57:28;;;;;;;10.37;1.90;;;17.50;99.90;;;;;;5011734;28;20544;-71
2023/09/19 02:00:06;;;;;;;6.30;0.90;;;17.50;99.90;;;;;;5012147;28;20445;-71
2023/09/19 02:02:38;;;;;;;6.53;1.03;;;17.50;99.90;;;;;;5011224;28;20828;-68
2023/09/19 02:05:07;;;;;;;6.37;0.97;;;17.40;99.90;;;;;;5011971;28;20926;-71
2023/09/19 02:07:35;;;;;;;7.60;1.00;;;17.40;99.90;;;;;;5011189;28;20477;-69
2023/09/19 02:10:05;;;;;;;6.10;0.87;;;17.40;99.90;;;;;;5011999;28;20975;-71
2023/09/19 02:12:34;;;;;;;6.60;0.93;;;17.40;99.90;;;;;;5011921;28;20446;-71
2023/09/19 02:15:02;;;;;;;6.73;0.80;;;17.50;99.90;;;;;;5012250;28;21043;-71
2023/09/19 02:17:31;;;;;;;8.20;1.03;;;17.40;99.90;;;;;;5010290;28;20456;-71
2023/09/19 02:20:00;;;;;;;8.47;0.87;;;17.40;99.90;;;;;;5011805;28;20812;-71
2023/09/19 02:22:29;;;;;;;6.17;0.90;;;17.30;99.90;;;;;;5011323;28;20457;-72
2023/09/19 02:25:00;;;;;;;7.03;0.73;;;17.30;99.90;;;;;;5011601;28;21420;-71
2023/09/19 02:27:28;;;;;;;6.13;1.00;;;17.20;99.90;;;;;;5010811;28;20481;-71
2023/09/19 02:29:56;;;;;;;12.10;1.40;;;17.20;99.90;;;;;;5011959;28;20585;-71
2023/09/19 02:32:24;;;;;;;5.97;0.83;;;17.20;99.90;;;;;;5011436;28;20460;-71
2023/09/19 02:34:53;;;;;;;7.33;0.90;;;17.10;99.90;;;;;;5011712;28;20442;-71
2023/09/19 02:37:22;;;;;;;7.10;1.00;;;17.10;99.90;;;;;;5010945;28;20519;-71
2023/09/19 02:39:50;;;;;;;6.80;0.93;;;17.10;99.90;;;;;;5011502;28;20449;-72
2023/09/19 02:42:19;;;;;;;6.37;0.97;;;17.00;99.90;;;;;;5011497;28;20453;-71
2023/09/19 02:44:48;;;;;;;6.70;0.80;;;17.00;99.90;;;;;;5011157;28;20450;-72
2023/09/19 02:47:16;;;;;;;5.87;0.70;;;17.00;99.90;;;;;;5010632;28;20490;-71
2023/09/19 02:49:44;;;;;;;7.27;1.00;;;16.90;99.90;;;;;;5011333;28;20465;-71
2023/09/19 02:52:14;;;;;;;6.20;1.00;;;16.90;99.90;;;;;;5011081;28;20442;-72
2023/09/19 02:54:44;;;;;;;6.17;1.10;;;16.90;99.90;;;;;;5011469;28;20550;-70
2023/09/19 02:57:14;;;;;;;6.60;0.90;;;17.00;99.90;;;;;;5010641;28;20452;-71
2023/09/19 02:59:42;;;;;;;6.80;0.80;;;17.10;99.90;;;;;;5011076;28;20536;-72
2023/09/19 03:02:10;;;;;;;6.30;0.87;;;17.20;99.90;;;;;;5011362;28;20833;-71
2023/09/19 03:04:39;;;;;;;7.07;1.10;;;17.20;99.90;;;;;;5014002;28;20458;-71
2023/09/19 03:07:07;;;;;;;6.10;0.90;;;17.10;99.90;;;;;;5010871;28;21020;-70
2023/09/19 03:09:35;;;;;;;5.77;0.60;;;17.30;99.90;;;;;;5011374;28;20488;-71
2023/09/19 03:12:06;;;;;;;6.10;1.10;;;17.30;99.90;;;;;;5011549;28;20504;-69
2023/09/19 03:14:35;;;;;;;5.90;0.70;;;17.40;99.90;;;;;;5011355;28;20864;-71
2023/09/19 03:17:04;;;;;;;6.53;1.30;;;17.40;99.90;;;;;;5010291;28;20895;-72
2023/09/19 03:19:33;;;;;;;6.67;0.80;;;17.50;99.90;;;;;;5011165;28;20466;-70
2023/09/19 03:22:02;;;;;;;5.97;0.90;;;17.60;99.90;;;;;;5010935;28;20481;-71
2023/09/19 03:24:31;;;;;;;6.30;0.90;;;17.50;99.90;;;;;;5010723;28;20942;-71
2023/09/19 03:26:59;;;;;;;6.10;0.90;;;17.40;99.90;;;;;;5010381;28;20485;-71
2023/09/19 03:29:29;;;;;;;7.17;0.73;;;17.40;99.90;;;;;;5010754;28;21218;-70
2023/09/19 03:31:57;;;;;;;6.80;1.20;;;17.40;99.90;;;;;;5011172;28;20446;-72
2023/09/19 03:34:25;;;;;;;6.20;0.80;;;17.40;99.90;;;;;;5010597;28;20477;-71
2023/09/19 03:36:53;;;;;;;6.20;0.90;;;17.40;99.90;;;;;;5010234;28;20811;-71
2023/09/19 03:39:21;;;;;;;7.10;0.80;;;17.40;99.90;;;;;;5010789;28;20457;-71
2023/09/19 03:41:49;;;;;;;6.20;0.90;;;17.50;99.90;;;;;;5010931;28;20512;-71
2023/09/19 03:44:17;;;;;;;7.40;0.90;;;17.60;99.90;;;;;;5010639;28;20438;-71
2023/09/19 03:46:46;;;;;;;6.03;0.87;;;17.60;99.90;;;;;;5010562;28;20513;-72
2023/09/19 03:49:15;;;;;;;6.20;0.80;;;17.60;99.90;;;;;;5010724;28;20478;-70
2023/09/19 03:51:43;;;;;;;6.57;0.80;;;17.60;99.90;;;;;;5010741;28;20461;-70
2023/09/19 03:54:11;;;;;;;5.80;0.73;;;17.60;99.90;;;;;;5010482;28;20469;-70
2023/09/19 03:56:39;;;;;;;6.47;1.37;;;17.50;99.90;;;;;;5001220;28;20446;-71
2023/09/19 03:59:08;;;;;;;6.90;1.43;;;17.50;99.90;;;;;;5010094;28;20479;-71
2023/09/19 04:01:37;;;;;;;7.23;1.20;;;17.40;99.90;;;;;;5010134;28;20448;-71
2023/09/19 04:04:08;;;;;;;6.97;1.57;;;17.50;99.90;;;;;;5010409;28;20446;-72
2023/09/19 04:06:36;;;;;;;6.10;1.13;;;17.40;99.90;;;;;;5019429;28;20525;-71
2023/09/19 04:09:06;;;;;;;6.90;1.27;;;17.20;99.90;;;;;;5009909;28;21000;-72
2023/09/19 04:11:35;;;;;;;6.20;1.00;;;17.10;99.90;;;;;;5011582;28;20449;-70
2023/09/19 04:14:05;;;;;;;7.20;1.00;;;17.10;99.90;;;;;;5011993;28;20500;-70
2023/09/19 04:16:33;;;;;;;7.03;1.17;;;17.00;99.90;;;;;;5009575;28;20452;-71
2023/09/19 04:19:02;;;;;;;6.73;1.27;;;16.90;99.90;;;;;;5009863;28;21178;-70
2023/09/19 04:21:32;;;;;;;6.90;1.40;;;16.70;99.90;;;;;;5009714;28;20450;-69
2023/09/19 04:24:00;;;;;;;9.20;1.53;;;16.50;99.90;;;;;;5009706;28;21006;-70
2023/09/19 04:26:27;;;;;;;6.33;1.30;;;16.40;99.90;;;;;;5009162;28;20800;-70
2023/09/19 04:28:56;;;;;;;6.60;1.07;;;16.40;99.90;;;;;;5009488;28;20544;-71
2023/09/19 04:31:24;;;;;;;7.00;1.70;;;16.30;99.90;;;;;;5009679;28;20484;-70
2023/09/19 04:33:52;;;;;;;6.60;1.10;;;16.40;99.90;;;;;;5009568;28;20532;-70
2023/09/19 04:36:20;;;;;;;7.60;1.27;;;16.30;99.90;;;;;;5008684;28;20457;-69
2023/09/19 04:39:06;;;;;;;6.50;1.20;;;16.30;99.90;;;;;;5009375;28;20564;-69
2023/09/19 04:41:36;;;;;;;6.23;1.20;;;16.30;99.90;;;;;;5009468;28;21297;-69
2023/09/19 04:44:05;;;;;;;6.80;1.40;;;16.20;99.90;;;;;;5010750;28;20459;-70
2023/09/19 04:46:33;;;;;;;6.87;1.53;;;16.10;99.90;;;;;;5011324;28;20450;-70
2023/09/19 04:49:04;;;;;;;7.83;1.50;;;16.00;99.90;;;;;;5010073;28;20485;-71
2023/09/19 04:51:34;;;;;;;8.13;1.73;;;16.00;99.90;;;;;;5011176;28;20446;-69
2023/09/19 04:54:04;;;;;;;8.10;1.40;;;16.10;99.90;;;;;;5009021;28;20883;-70
2023/09/19 04:56:33;;;;;;;8.73;1.53;;;16.10;99.90;;;;;;5008027;28;20535;-70
2023/09/19 04:59:01;;;;;;;6.93;1.30;;;16.10;99.90;;;;;;5009658;28;20479;-70
2023/09/19 05:01:36;;;;;;;7.53;1.83;;;16.10;99.90;;;;;;5009960;28;20546;-69
2023/09/19 05:04:05;;;;;;;7.17;1.80;;;16.10;99.90;;;;;;5009872;28;20476;-69
2023/09/19 05:06:33;;;;;;;6.77;1.33;;;16.20;99.90;;;;;;5009074;28;20452;-69
2023/09/19 05:09:05;;;;;;;7.30;1.40;;;16.30;99.90;;;;;;5012927;28;20838;-69
2023/09/19 05:11:33;;;;;;;6.50;1.50;;;16.40;99.90;;;;;;5012987;28;20468;-69
2023/09/19 05:14:03;;;;;;;7.17;1.57;;;16.30;99.90;;;;;;5013039;28;20450;-71
2023/09/19 05:16:32;;;;;;;7.20;1.70;;;16.30;99.90;;;;;;5013327;28;20480;-69
2023/09/19 05:19:01;;;;;;;7.33;1.50;;;16.30;99.90;;;;;;5015952;28;20548;-69
2023/09/19 05:21:30;;;;;;;7.57;1.50;;;16.40;99.90;;;;;;5012840;28;20449;-69
2023/09/19 05:23:58;;;;;;;6.60;1.30;;;16.40;99.90;;;;;;5013248;28;20458;-69
2023/09/19 05:26:27;;;;;;;6.93;1.30;;;16.50;99.90;;;;;;5012729;28;20481;-67
2023/09/19 05:28:56;;;;;;;7.83;1.40;;;16.40;99.90;;;;;;5013149;28;20508;-67
2023/09/19 05:31:24;;;;;;;6.63;1.53;;;16.40;99.90;;;;;;5013096;28;20453;-69
2023/09/19 05:33:54;;;;;;;6.67;1.50;;;16.30;99.90;;;;;;5013116;28;20930;-69
2023/09/19 05:36:23;;;;;;;8.00;1.97;;;16.40;99.90;;;;;;5012771;28;20803;-69
2023/09/19 05:38:51;;;;;;;7.13;1.77;;;16.40;99.90;;;;;;5012573;28;20968;-69
2023/09/19 05:41:18;;;;;;;7.10;1.80;;;16.30;99.90;;;;;;5013262;28;20547;-69
2023/09/19 05:43:50;;;;;;;7.67;2.13;;;16.30;99.90;;;;;;5013281;28;20464;-69
2023/09/19 05:46:19;;;;;;;7.60;1.97;;;16.30;99.90;;;;;;5012573;28;20570;-67
2023/09/19 05:48:49;;;;;;;9.47;1.97;;;16.30;99.90;;;;;;5012254;28;20481;-67
2023/09/19 05:51:20;;;;;;;9.23;1.90;;;16.30;99.90;;;;;;5012476;28;20452;-67
2023/09/19 05:53:48;;;;;;;7.40;1.80;;;16.20;99.90;;;;;;5012999;28;20512;-68
2023/09/19 05:56:18;;;;;;;7.47;1.70;;;16.20;99.90;;;;;;5012524;28;20457;-68
2023/09/19 05:58:49;;;;;;;6.70;1.50;;;16.20;99.90;;;;;;5004671;28;20472;-70
2023/09/19 06:01:17;;;;;;;8.80;2.10;;;16.10;99.90;;;;;;5012649;28;20457;-67
2023/09/19 06:03:45;;;;;;;8.27;1.60;;;16.00;99.90;;;;;;5012324;28;20442;-67
2023/09/19 06:06:14;;;;;;;8.60;1.90;;;15.80;99.90;;;;;;5012076;28;20448;-67
2023/09/19 06:08:44;;;;;;;8.50;1.80;;;15.70;99.90;;;;;;5011784;28;21001;-67
2023/09/19 06:11:11;;;;;;;9.20;2.10;;;15.50;99.90;;;;;;5012205;28;20456;-67
2023/09/19 06:13:40;;;;;;;8.70;2.10;;;15.40;99.90;;;;;;5011946;28;20866;-67
2023/09/19 06:16:10;;;;;;;10.57;2.70;;;15.20;99.90;;;;;;5011659;28;20445;-67
2023/09/19 06:18:38;;;;;;;7.60;2.40;;;15.00;99.90;;;;;;5010937;28;20980;-68
2023/09/19 06:21:07;;;;;;;9.30;2.50;;;14.90;99.90;;;;;;5012195;28;20520;-67
2023/09/19 06:23:35;;;;;;;9.73;2.50;;;14.90;99.90;;;;;;5012034;28;20482;-68
2023/09/19 06:26:06;;;;;;;9.87;2.50;;;14.90;99.90;;;;;;5011933;28;20901;-68
2023/09/19 06:28:34;;;;;;;9.63;2.77;;;14.90;99.90;;;;;;5010531;28;20485;-67
2023/09/19 06:31:04;;;;;;;7.80;2.10;;;15.00;99.90;;;;;;5010430;28;20879;-67
2023/09/19 06:33:38;;;;;;;7.77;2.10;;;15.00;99.90;;;;;;5011580;28;20450;-67
2023/09/19 06:36:07;;;;;;;8.43;2.20;;;15.10;99.90;;;;;;5011606;28;20442;-66
2023/09/19 06:38:36;;;;;;;9.27;2.73;;;15.20;99.90;;;;;;5009740;28;20466;-68
2023/09/19 06:41:07;;;;;;;8.70;2.20;;;15.30;99.90;;;;;;5011651;28;20453;-67
2023/09/19 06:43:35;;;;;;;8.13;2.50;;;15.40;99.90;;;;;;5011494;28;20570;-67
2023/09/19 06:46:03;;;;;;;7.20;2.20;;;15.40;99.90;;;;;;5011738;28;20499;-68
2023/09/19 06:48:33;;;;;;;8.40;2.33;;;15.50;99.90;;;;;;5011015;28;20467;-68
2023/09/19 06:51:04;;;;;;;8.03;2.03;;;15.60;99.90;;;;;;5011311;28;20481;-66
2023/09/19 06:53:32;;;;;;;10.10;2.27;;;15.70;99.90;;;;;;5010801;28;20439;-68
2023/09/19 06:56:01;;;;;;;7.50;2.13;;;15.80;99.90;;;;;;5011338;28;20532;-68
2023/09/19 06:58:29;;;;;;;9.17;2.00;;;15.80;99.90;;;;;;5010921;28;20894;-66
2023/09/19 07:00:57;;;;;;;7.53;2.00;;;16.00;99.90;;;;;;5012267;28;20448;-68
2023/09/19 07:03:26;;;;;;;8.80;2.20;;;16.10;99.90;;;;;;5011236;28;20462;-68
2023/09/19 07:05:55;;;;;;;9.20;2.10;;;16.20;99.90;;;;;;5011417;28;20559;-67
2023/09/19 07:08:25;;;;;;;10.10;3.07;;;16.30;99.90;;;;;;5009546;28;20492;-68
2023/09/19 07:10:54;;;;;;;7.60;2.07;;;16.50;99.90;;;;;;5010054;28;20572;-68
2023/09/19 07:13:22;;;;;;;8.17;2.40;;;16.60;99.90;;;;;;5010805;28;20450;-68
2023/09/19 07:15:50;;;;;;;8.43;2.53;;;16.70;99.90;;;;;;5011016;28;20442;-69
2023/09/19 07:18:19;;;;;;;9.50;2.63;;;16.80;99.90;;;;;;5010298;28;20465;-68
2023/09/19 07:20:49;;;;;;;9.00;1.90;;;17.00;99.90;;;;;;5002997;28;20438;-68
2023/09/19 07:23:20;;;;;;;8.60;2.37;;;17.10;99.90;;;;;;5011215;28;20452;-68
2023/09/19 07:25:50;;;;;;;9.23;2.07;;;17.10;99.90;;;;;;5010908;28;20441;-67
2023/09/19 07:28:19;;;;;;;7.50;1.70;;;17.10;99.90;;;;;;5010523;28;20509;-67
2023/09/19 07:30:47;;;;;;;8.97;2.23;;;17.00;99.90;;;;;;5009942;28;20654;-68
2023/09/19 07:33:15;;;;;;;7.60;1.80;;;16.90;99.90;;;;;;5010775;28;20505;-68
2023/09/19 07:35:47;;;;;;;8.13;1.80;;;16.90;99.90;;;;;;5010727;28;20481;-67
2023/09/19 07:38:15;;;;;;;9.73;1.97;;;16.90;99.90;;;;;;5010420;28;20468;-67
2023/09/19 07:40:43;;;;;;;8.23;1.80;;;17.00;99.90;;;;;;5010973;28;20525;-67
2023/09/19 07:43:13;;;;;;;8.37;2.27;;;17.10;99.90;;;;;;5011320;28;20529;-67
2023/09/19 07:45:41;;;;;;;8.50;1.80;;;17.10;99.90;;;;;;5010641;28;20500;-68
2023/09/19 07:48:14;;;;;;;7.63;1.47;;;17.20;99.90;;;;;;5009764;28;20477;-68
2023/09/19 07:50:44;;;;;;;7.70;2.03;;;17.30;99.90;;;;;;5010067;28;20488;-69
2023/09/19 07:53:13;;;;;;;7.77;1.97;;;17.30;99.90;;;;;;5010574;28;20504;-68
2023/09/19 07:55:42;;;;;;;7.70;2.00;;;17.40;99.90;;;;;;5010405;28;20588;-69
2023/09/19 07:58:10;;;;;;;9.30;1.47;;;17.60;99.90;;;;;;5010045;28;21015;-68
2023/09/19 08:00:39;;;;;;;7.57;1.60;;;17.70;99.90;;;;;;5010828;28;20435;-69
2023/09/19 08:03:08;;;;;;;8.57;1.87;;;17.60;99.90;;;;;;5013443;28;20202;-68
2023/09/19 08:05:45;;;;;;;12.60;1.80;;;17.60;99.90;;;;;;5015406;28;20441;-68
2023/09/19 08:08:14;;;;;;;10.37;1.83;;;17.50;99.90;;;;;;5014737;28;20462;-69
2023/09/19 08:10:45;;;;;;;8.30;1.90;;;17.60;99.90;;;;;;5012991;28;20485;-69
2023/09/19 08:13:14;;;;;;;9.50;1.63;;;17.70;99.90;;;;;;5012733;28;20847;-68
2023/09/19 08:15:45;;;;;;;10.30;2.00;;;17.70;99.90;;;;;;5012245;28;20454;-68
2023/09/19 08:18:14;;;;;;;7.80;1.67;;;17.80;99.90;;;;;;5010435;28;20471;-69
2023/09/19 08:20:45;;;;;;;9.83;1.87;;;17.90;99.90;;;;;;5010661;28;20442;-69
2023/09/19 08:23:14;;;;;;;8.07;1.60;;;18.10;99.90;;;;;;5010254;28;20527;-69
2023/09/19 08:25:42;;;;;;;8.60;1.73;;;18.30;99.90;;;;;;5009751;28;20481;-68
2023/09/19 08:28:12;;;;;;;7.00;1.40;;;18.40;99.90;;;;;;5009459;28;20553;-68
2023/09/19 08:30:41;;;;;;;6.90;1.13;;;18.50;99.90;;;;;;5010127;28;20524;-70
2023/09/19 08:33:10;;;;;;;7.77;1.80;;;18.50;99.90;;;;;;5010229;28;20449;-67
2023/09/19 08:35:39;;;;;;;7.53;1.40;;;18.50;99.90;;;;;;5009672;28;20462;-69
2023/09/19 08:38:07;;;;;;;6.30;1.10;;;18.60;99.90;;;;;;5008955;28;20561;-68
2023/09/19 08:40:39;;;;;;;7.00;1.90;;;18.70;99.90;;;;;;5009553;28;20442;-69
2023/09/19 08:43:08;;;;;;;9.20;1.80;;;18.70;99.90;;;;;;5009260;28;20450;-68
2023/09/19 08:45:37;;;;;;;6.80;1.30;;;18.90;99.90;;;;;;5009179;28;20461;-69
2023/09/19 08:48:18;;;;;;;8.53;1.40;;;18.90;99.90;;;;;;5008686;28;21021;-69
2023/09/19 08:50:50;;;;;;;7.40;1.30;;;18.90;99.90;;;;;;5009379;28;20533;-69
2023/09/19 08:53:27;;;;;;;7.10;1.40;;;19.00;99.90;;;;;;5009458;28;20446;-69
2023/09/19 08:55:57;;;;;;;7.20;1.37;;;19.20;99.90;;;;;;5009229;28;20528;-69
2023/09/19 08:58:29;;;;;;;7.77;1.40;;;19.30;99.90;;;;;;5008637;28;20842;-68
2023/09/19 09:01:01;;;;;;;7.53;1.57;;;19.50;99.90;;;;;;5009339;28;20434;-69
2023/09/19 09:03:34;;;;;;;7.57;1.30;;;20.00;99.90;;;;;;5009277;28;20540;-69
2023/09/19 09:06:03;;;;;;;7.70;1.50;;;20.20;99.90;;;;;;5009197;28;20481;-69
2023/09/19 09:08:32;;;;;;;7.60;1.47;;;20.00;99.90;;;;;;5008532;28;20466;-68
2023/09/19 09:11:01;;;;;;;7.20;1.30;;;20.10;99.90;;;;;;5008917;28;20478;-69
2023/09/19 09:13:30;;;;;;;10.27;1.50;;;20.10;99.90;;;;;;5008604;28;20514;-69
2023/09/19 09:15:59;;;;;;;7.50;1.10;;;20.20;99.90;;;;;;5009199;28;20474;-68
2023/09/19 09:18:27;;;;;;;6.90;1.20;;;20.00;99.90;;;;;;5008333;28;20552;-67
2023/09/19 09:20:56;;;;;;;6.40;1.23;;;19.80;99.90;;;;;;5008914;28;20538;-68
2023/09/19 09:23:25;;;;;;;6.90;1.33;;;19.70;99.90;;;;;;5008838;28;20457;-66
2023/09/19 09:26:00;;;;;;;6.57;1.13;;;19.70;99.90;;;;;;5008845;28;20879;-68
2023/09/19 09:28:30;;;;;;;8.07;1.83;;;19.90;99.90;;;;;;5008418;28;20841;-68
2023/09/19 09:30:59;;;;;;;7.80;1.53;;;20.10;99.90;;;;;;5009074;28;20564;-67
2023/09/19 09:33:28;;;;;;;6.40;1.30;;;19.90;99.90;;;;;;5008717;28;20477;-67
2023/09/19 09:36:00;;;;;;;7.03;1.20;;;19.80;99.90;;;;;;5009032;28;20452;-68
2023/09/19 09:38:32;;;;;;;8.40;1.23;;;19.60;99.90;;;;;;5008101;28;20473;-69
2023/09/19 09:41:02;;;;;;;8.30;1.50;;;19.60;99.90;;;;;;5008896;28;20461;-68
2023/09/19 09:43:38;;;;;;;10.00;1.30;;;19.50;99.90;;;;;;5008726;28;20476;-68
2023/09/19 09:49:18;;;;;;;7.00;1.30;;;19.40;99.90;;;;;;5008484;28;21095;-68
2023/09/19 09:51:59;;;;;;;7.30;1.03;;;19.70;99.90;;;;;;5008393;28;20489;-68
2023/09/19 09:54:34;;;;;;;7.13;1.00;;;19.80;99.90;;;;;;5010743;28;20476;-68
2023/09/19 09:57:13;;;;;;;7.70;1.40;;;20.00;99.90;;;;;;5011575;28;20441;-68
2023/09/19 09:59:52;;;;;;;7.57;1.40;;;20.20;99.90;;;;;;5011926;28;20465;-69
2023/09/19 10:02:25;;;;;;;7.30;1.30;;;20.20;99.90;;;;;;5012416;28;20794;-66
2023/09/19 10:04:59;;;;;;;6.30;1.13;;;20.50;99.90;;;;;;5004623;28;20441;-68
2023/09/19 10:07:35;;;;;;;6.57;1.23;;;20.70;99.90;;;;;;5011384;28;20437;-69
2023/09/19 10:10:16;;;;;;;6.20;0.80;;;20.70;99.90;;;;;;5012189;28;20433;-68
2023/09/19 10:12:48;;;;;;;7.73;1.20;;;20.40;99.90;;;;;;5011819;28;20485;-67
2023/09/19 10:15:20;;;;;;;7.60;1.37;;;20.30;99.90;;;;;;5011945;28;20953;-68
2023/09/19 10:17:56;;;;;;;7.57;1.50;;;20.30;99.90;;;;;;5003300;28;20538;-68
2023/09/19 10:20:35;;;;;;;7.13;1.30;;;20.40;99.90;;;;;;5012196;28;20444;-68
2023/09/19 10:23:12;;;;;;;6.47;1.40;;;20.60;99.90;;;;;;5012205;28;20434;-68
2023/09/19 10:25:41;;;;;;;7.50;1.20;;;20.70;99.90;;;;;;5011963;28;20438;-68
2023/09/19 10:28:11;;;;;;;6.90;1.33;;;21.10;99.90;;;;;;5011405;28;20465;-67
2023/09/19 10:30:43;;;;;;;7.40;1.10;;;21.80;99.90;;;;;;5011621;28;20838;-68
2023/09/19 10:33:13;;;;;;;6.40;1.03;;;22.30;99.90;;;;;;5012151;28;20505;-69
2023/09/19 10:35:46;;;;;;;7.90;1.00;;;22.40;99.90;;;;;;5011677;28;20482;-67
2023/09/19 10:38:20;;;;;;;7.23;1.17;;;22.70;99.90;;;;;;5011307;28;20886;-68
2023/09/19 10:40:51;;;;;;;7.10;1.17;;;22.90;99.90;;;;;;5011634;28;20802;-68
2023/09/19 10:43:21;;;;;;;6.23;1.10;;;23.30;99.90;;;;;;5011875;28;20450;-68
2023/09/19 10:45:52;;;;;;;6.70;1.47;;;23.50;96.90;;;;;;5011533;28;20450;-67
2023/09/19 10:48:25;;;;;;;6.57;1.20;;;22.80;97.30;;;;;;5010875;28;20466;-68
2023/09/19 10:51:05;;;;;;;6.67;1.10;;;22.10;98.00;;;;;;5011502;28;20472;-67
2023/09/19 10:53:50;;;;;;;7.17;1.40;;;22.30;96.80;;;;;;5011112;28;20811;-68
2023/09/19 10:56:24;;;;;;;6.90;1.33;;;22.90;97.20;;;;;;5011098;28;20442;-69
2023/09/19 10:58:53;;;;;;;6.90;1.60;;;23.40;94.90;;;;;;5011010;28;20469;-69
2023/09/19 11:01:21;;;;;;;7.40;0.90;;;24.00;92.00;;;;;;5011109;28;20480;-69
2023/09/19 11:04:22;;;;;;;6.90;1.00;;;24.00;91.80;;;;;;5010933;28;20801;-68
2023/09/19 11:07:03;;;;;;;6.80;1.30;;;24.10;91.10;;;;;;5010486;28;20438;-69
2023/09/19 11:09:53;;;;;;;6.50;1.27;;;24.10;88.80;;;;;;5010814;28;20979;-69
2023/09/19 11:12:52;;;;;;;7.27;0.80;;;23.70;87.30;;;;;;5010771;28;20473;-68
2023/09/19 11:15:53;;;;;;;6.87;1.50;;;23.80;87.50;;;;;;5010988;28;20442;-68
2023/09/19 11:18:57;;;;;;;6.80;1.30;;;23.90;84.60;;;;;;4990446;28;20469;-68
2023/09/19 11:21:51;;;;;;;9.37;1.07;;;23.40;85.40;;;;;;4960426;28;20469;-69
2023/09/19 11:24:31;;;;;;;6.40;1.00;;;23.60;86.00;;;;;;5006542;28;20525;-68
2023/09/19 11:27:18;;;;;;;6.17;1.43;;;23.70;84.30;;;;;;5010446;28;20497;-68
2023/09/19 11:29:47;;;;;;;6.93;1.07;;;23.70;83.30;;;;;;5010652;28;20500;-68
2023/09/19 11:32:17;;;;;;;6.77;1.30;;;23.90;83.00;;;;;;5011084;28;20528;-68
2023/09/19 11:34:47;;;;;;;7.40;1.50;;;24.00;79.20;;;;;;5010954;28;20868;-67
2023/09/19 11:38:07;;;;;;;6.33;1.00;;;23.50;80.20;;;;;;5010397;28;20458;-67
2023/09/19 11:40:35;;;;;;;6.77;1.30;;;23.30;81.90;;;;;;5010399;28;20441;-67
2023/09/19 11:43:35;;;;;;;6.93;1.20;;;23.40;84.30;;;;;;5010404;28;20445;-68
2023/09/19 11:46:07;;;;;;;7.40;1.10;;;23.50;81.70;;;;;;5010313;28;21315;-69
2023/09/19 11:48:44;;;;;;;6.27;1.20;;;23.60;79.20;;;;;;5009732;28;21129;-68
2023/09/19 11:51:22;;;;;;;8.40;1.37;;;23.60;84.70;;;;;;5010549;28;20481;-67
2023/09/19 11:53:51;;;;;;;8.10;1.70;;;23.70;85.80;;;;;;5009974;28;20822;-68
2023/09/19 11:56:21;;;;;;;6.70;1.10;;;23.60;88.50;;;;;;5010028;28;20461;-68
2023/09/19 11:58:54;;;;;;;6.80;1.20;;;23.50;90.10;;;;;;5009609;28;20465;-69
2023/09/19 12:01:25;;;;;;;6.93;1.30;;;23.10;82.90;;;;;;5009875;28;20508;-68
2023/09/19 12:03:56;;;;;;;6.30;0.90;;;22.40;82.30;;;;;;5009733;28;20434;-68
2023/09/19 12:06:26;;;;;;;6.80;1.20;;;21.90;83.60;;;;;;5005844;28;20445;-68
2023/09/19 12:08:57;;;;;;;6.47;1.20;;;21.90;84.40;;;;;;5006037;28;20477;-68
2023/09/19 12:11:28;;;;;;;6.30;0.90;;;22.80;82.10;;;;;;5005975;28;20477;-68
2023/09/19 12:14:00;;;;;;;8.50;0.93;;;23.50;77.50;;;;;;5002028;28;20437;-68
2023/09/19 12:16:30;;;;;;;6.60;1.23;;;24.90;79.50;;;;;;5009007;28;20537;-68
2023/09/19 12:18:59;;;;;;;7.53;1.60;;;26.60;76.40;;;;;;5006220;28;20511;-67
2023/09/19 12:21:31;;;;;;;7.20;1.50;;;27.70;74.20;;;;;;5010331;28;20500;-66
2023/09/19 12:24:05;;;;;;;7.70;1.50;;;28.50;70.50;;;;;;5009706;28;20536;-67
2023/09/19 12:26:41;;;;;;;6.80;1.10;;;29.10;64.10;;;;;;5009424;28;20450;-66
2023/09/19 12:29:18;;;;;;;7.60;1.23;;;29.90;61.00;;;;;;5009597;28;20625;-68
2023/09/19 12:31:55;;;;;;;8.07;1.37;;;30.00;59.30;;;;;;5009523;28;20446;-67
2023/09/19 12:34:26;;;;;;;6.70;1.20;;;28.90;58.10;;;;;;5009772;28;20441;-67
2023/09/19 12:37:12;;;;;;;6.93;1.40;;;26.80;59.70;;;;;;5001032;28;20952;-68
2023/09/19 12:39:42;;;;;;;6.70;1.17;;;25.60;63.30;;;;;;5007049;28;20470;-68
2023/09/19 12:42:13;;;;;;;8.27;1.40;;;24.80;66.80;;;;;;5009229;28;21018;-67
2023/09/19 12:44:48;;;;;;;7.47;1.20;;;25.90;65.50;;;;;;5009772;28;20500;-67
2023/09/19 12:47:19;;;;;;;6.80;1.43;;;26.10;60.20;;;;;;5008903;28;20514;-67
2023/09/19 12:50:14;;;;;;;6.67;1.20;;;25.00;62.80;;;;;;5012183;28;20461;-66
2023/09/19 12:52:45;;;;;;;6.97;1.40;;;24.60;66.70;;;;;;5001818;28;20570;-66
2023/09/19 12:55:24;;;;;;;7.20;1.17;;;25.60;64.80;;;;;;5003381;28;20794;-67
2023/09/19 12:58:15;;;;;;;8.03;1.30;;;26.10;62.90;;;;;;5002640;28;20473;-67
2023/09/19 13:00:45;;;;;;;6.47;0.93;;;26.30;60.20;;;;;;5003771;28;20524;-68
2023/09/19 13:03:19;;;;;;;6.57;1.10;;;27.20;59.50;;;;;;5000909;28;20518;-69
2023/09/19 13:05:59;;;;;;;6.70;1.20;;;28.00;58.50;;;;;;5003803;28;20855;-68
2023/09/19 13:08:30;;;;;;;7.37;0.97;;;29.30;54.40;;;;;;4999157;28;20466;-70
2023/09/19 13:11:21;;;;;;;7.10;1.13;;;28.60;52.80;;;;;;5000515;28;20441;-67
2023/09/19 13:14:11;;;;;;;7.10;1.40;;;26.10;57.80;;;;;;4999855;28;20486;-69